GGOV

Osvaldo Vieira International Airport

Bissau, Guinea-Bissau
METAR GGOV 240700Z 32003KT 8000 NSC 21/20 Q1011 NOSIG
Observed Flight Rules
May-24 @ 07:00 UTC (an hour ago) Marginal Visual Flight Rules
Wind Visibility Clouds
320° at 3 knots 7,998 meters
  • Clear skies
Temperatures Readings
Current 21°C / 70°F
Dewpoint 20°C / 68°F
Humidity 94%
Altimeter 29.85" Hg
Pressure 1011 hPa
Elevation 36
METAR GGOV 240700Z 32003KT 8000 NSC 21/20 Q1011 NOSIG
Observed Flight Rules
May-24 @ 07:00 UTC
(an hour ago)
MVFR
Wind Visibility
320° at 3 knots 7,998 meters
Clouds
  • Clear skies
Temperature Dewpoint
21°C / 70°F 20°C / 68°F
Humidity Altimeter Pressure
94% 29.85" Hg 1011 hPa